LFRTLFRB

Guest
Details From LFRT - Saint Brieuc Armor
To LFRB - Brest Bretagne
Flight Number -
Tags decoded
Created
Modified
Stats Distance 62 nm / 116 km
Max Altitude 0 ft / 0 m
Waypoints 2
Social Downloads 0
Likes 0
Share VATSIM

Download

Looking for another format? Having issues loading an existing format? Contact us
Advertisement - Login to hide

Notes

Requested: LFRT LFRB

Route

LFRT LFRB

ID Type Via Altitude Latitude Longitude Leg Dist Tot Dist Heading (true) Name
O LFRT APT - 0 ft / 0 m 48.53826˚ -2.85461˚ - 0 nm - Saint Brieuc Armor
O LFRB APT - 0 ft / 0 m 48.44938˚ -4.41823˚ 62 nm 62 nm 266° / 265° Brest Bretagne

Altitude Profile

Advertisement - Login to hide

LFRT

Details ICAO LFRT (SBK)
Name Saint Brieuc Armor
Region France
Timezone Europe/Paris (UTC+1.0)
Stats Elevation 452 ft / 138 m (AMSL)
Location 48.538265° -2.854612°
Runways 1
Magnetic Variation 1.053° W

METAR

LFRT 121000Z AUTO 26003KT 180V300 9999 FEW035 BKN240 06/03 Q1011

Decode

TAF

Not found

Departure Runways

ID Width Length Bearing (true) Bearing (mag) Surface Threshold Offset Overrun Length
06 148 ft / 45 m 7,214 ft / 2,199 m 58.77° 59.82° Asphalt 0 ft / 0 m 0 ft / 0 m
24 148 ft / 45 m 7,214 ft / 2,199 m 238.79° 239.84° Asphalt 0 ft / 0 m 0 ft / 0 m

LFRB

Details ICAO LFRB (BES)
Name Brest Bretagne
Region France
Timezone Europe/Paris (UTC+1.0)
Stats Elevation 325 ft / 99 m (AMSL)
Location 48.449376° -4.418232°
Runways 2
Magnetic Variation 1.577° W

METAR

LFRB 121000Z AUTO 19005KT CAVOK 04/04 Q1012 NOSIG

Decode

TAF

TAF LFRB 120500Z 1206/1312 20003KT 9999 SCT030 BKN054 PROB30 TEMPO 1206/1209 5000 SHRA FEW020CB SCT025TCU BECMG 1215/1218 20010KT BECMG 1218/1221 4000 -RA TEMPO 1218/1223 21015G25KT BECMG 1310/1312 20015G25KT 3000 RA BKN010

Decode

Destination Runways

ID Width Length Bearing (true) Bearing (mag) Surface Threshold Offset Overrun Length
07L 62 ft / 19 m 2,518 ft / 768 m 71.21° 72.79° Asphalt 131 ft / 40 m 0 ft / 0 m
07R 148 ft / 45 m 10,153 ft / 3,095 m 71.16° 72.74° Asphalt 0 ft / 0 m 0 ft / 0 m
25L 148 ft / 45 m 10,153 ft / 3,095 m 251.19° 252.77° Asphalt 984 ft / 300 m 0 ft / 0 m
25R 62 ft / 19 m 2,518 ft / 768 m 251.22° 252.80° Asphalt 112 ft / 34 m 0 ft / 0 m

Approach Navaids

Runway Type Ident Frequency Range Bearing (true) Bearing (mag) Slope Elevation
25L Localiser BG 109.90 MHz 27 nm / 50 km 251.20° 252.78° - 325 ft / 99 m (AMSL)
25L Glidescope BG 109.90 MHz 27 nm / 50 km 251.20° 252.78° 3.00° 325 ft / 99 m (AMSL)
25L DME BG 109.90 MHz 27 nm / 50 km - - - 325 ft / 99 m (AMSL)

Popular Alternatives